Time;durP1;ratioP1;P1;durP2;ratioP2;P2;SDS_P1;SDS_P2;PMS_P1;PMS_P2;Temp;Humidity;BMP_temperature;BMP_pressure;BME280_temperature;BME280_humidity;BME280_pressure;Samples;Min_cycle;Max_cycle;Signal;HPM_P1;HPM_P2
2024/01/09 00:00:50;;;;;;;80.93;39.80;;;0.40;2201.60;;;;;;5073050;28;20024;-62
2024/01/09 00:03:16;;;;;;;56.55;29.13;;;0.40;2201.60;;;;;;5073245;28;20119;-66
2024/01/09 00:05:42;;;;;;;42.65;22.80;;;0.50;2201.60;;;;;;5073465;28;20028;-62
2024/01/09 00:08:08;;;;;;;38.20;21.42;;;0.40;2201.60;;;;;;5071517;28;20047;-62
2024/01/09 00:10:33;;;;;;;45.58;25.42;;;0.50;2201.60;;;;;;5071307;28;20417;-61
2024/01/09 00:12:59;;;;;;;52.40;28.13;;;0.50;2201.60;;;;;;5071000;28;20056;-61
2024/01/09 00:15:25;;;;;;;48.83;27.65;;;0.70;2201.60;;;;;;5071270;28;20055;-61
2024/01/09 00:17:51;;;;;;;172.98;83.50;;;0.50;2201.60;;;;;;5070741;28;20041;-61
2024/01/09 00:20:17;;;;;;;42.08;21.23;;;0.50;2201.60;;;;;;5070961;28;20434;-61
2024/01/09 00:22:43;;;;;;;42.95;25.77;;;0.60;2201.60;;;;;;5071274;28;20470;-62
2024/01/09 00:25:09;;;;;;;42.97;22.75;;;0.50;2201.60;;;;;;5070561;28;20024;-61
2024/01/09 00:27:35;;;;;;;47.15;23.95;;;0.30;2201.60;;;;;;5070882;28;20336;-61
2024/01/09 00:30:02;;;;;;;51.08;26.70;;;0.20;2201.60;;;;;;5070508;28;20471;-60
2024/01/09 00:32:29;;;;;;;91.75;47.00;;;0.20;2201.60;;;;;;5070892;28;20063;-61
2024/01/09 00:34:55;;;;;;;46.25;23.77;;;0.50;2201.60;;;;;;5071010;28;20031;-61
2024/01/09 00:37:20;;;;;;;63.38;33.33;;;0.50;2201.60;;;;;;5070547;28;20024;-60
2024/01/09 00:39:47;;;;;;;48.33;26.52;;;0.60;2201.60;;;;;;5070681;28;20497;-61
2024/01/09 00:42:13;;;;;;;35.65;21.60;;;0.40;2201.60;;;;;;5070266;28;20485;-60
2024/01/09 00:44:41;;;;;;;41.75;23.00;;;0.30;2201.60;;;;;;5071035;28;20020;-61
2024/01/09 00:47:07;;;;;;;42.65;24.27;;;0.30;2201.60;;;;;;5072535;28;20031;-61
2024/01/09 00:49:32;;;;;;;50.17;28.90;;;0.10;2201.60;;;;;;5070481;28;20045;-60
2024/01/09 00:51:58;;;;;;;34.30;22.10;;;0.20;2201.60;;;;;;5071332;28;20502;-61
2024/01/09 00:54:24;;;;;;;100.20;43.65;;;0.10;2201.60;;;;;;5076726;28;20024;-60
2024/01/09 00:56:50;;;;;;;36.13;21.42;;;0.10;2201.60;;;;;;5069933;28;20032;-61
2024/01/09 00:59:16;;;;;;;34.22;21.55;;;0.30;2201.60;;;;;;5069751;28;20032;-61
2024/01/09 01:01:41;;;;;;;27.27;18.55;;;0.30;2201.60;;;;;;5070465;28;20370;-61
2024/01/09 01:04:07;;;;;;;47.65;28.85;;;0.30;2201.60;;;;;;5062735;28;20039;-63
2024/01/09 01:06:40;;;;;;;51.08;28.10;;;0.40;2201.60;;;;;;5076651;28;20032;-61
2024/01/09 01:09:06;;;;;;;;;;;0.30;2201.60;;;;;;5071288;28;20469;-61
2024/01/09 01:11:32;;;;;;;52.97;26.95;;;0.40;2201.60;;;;;;5073258;28;20063;-59
2024/01/09 01:13:58;;;;;;;44.83;24.50;;;0.30;2201.60;;;;;;5074978;28;20107;-60
2024/01/09 01:16:23;;;;;;;36.22;21.85;;;0.10;2201.60;;;;;;5070100;28;20056;-61
2024/01/09 01:18:49;;;;;;;43.85;24.77;;;0.10;2201.60;;;;;;5069733;28;20388;-60
2024/01/09 01:21:15;;;;;;;62.33;35.05;;;0.00;2201.60;;;;;;5070059;28;20510;-61
2024/01/09 01:23:42;;;;;;;42.08;24.38;;;0.00;2201.60;;;;;;5070060;28;20486;-62
2024/01/09 01:26:07;;;;;;;41.05;23.67;;;0.00;2201.60;;;;;;5068582;28;20032;-61
2024/01/09 01:28:33;;;;;;;45.50;23.90;;;0.10;2201.60;;;;;;5074097;28;20024;-61
2024/01/09 01:30:59;;;;;;;37.85;22.75;;;0.10;2201.60;;;;;;5085452;28;20140;-61
2024/01/09 01:33:25;;;;;;;38.55;23.20;;;0.20;2201.60;;;;;;5075406;28;20024;-61
2024/01/09 01:35:51;;;;;;;43.20;25.50;;;0.10;2201.60;;;;;;5085248;28;20028;-61
2024/01/09 01:38:18;;;;;;;39.28;22.80;;;0.10;2201.60;;;;;;5079424;28;20482;-62
2024/01/09 01:40:44;;;;;;;39.38;23.00;;;0.20;2201.60;;;;;;5084167;28;20046;-62
2024/01/09 01:43:09;;;;;;;47.72;26.27;;;0.30;2201.60;;;;;;5079018;28;20032;-61
2024/01/09 01:45:35;;;;;;;46.85;26.58;;;0.20;2201.60;;;;;;5076941;28;20029;-61
2024/01/09 01:48:02;;;;;;;44.63;25.92;;;0.10;2201.60;;;;;;5075131;28;20020;-60
2024/01/09 01:50:30;;;;;;;38.08;23.17;;;0.00;2201.60;;;;;;5088855;28;20551;-60
2024/01/09 01:52:58;;;;;;;39.42;20.67;;;0.00;2201.60;;;;;;5063002;28;20038;-62
2024/01/09 01:55:27;;;;;;;38.13;23.13;;;0.10;2201.60;;;;;;5087142;28;20021;-60
2024/01/09 01:57:55;;;;;;;40.88;23.77;;;0.10;2201.60;;;;;;5088651;28;20106;-61
2024/01/09 02:00:23;;;;;;;41.75;23.88;;;0.30;2201.60;;;;;;5075490;28;20451;-61
2024/01/09 02:02:50;;;;;;;38.22;24.17;;;0.20;2201.60;;;;;;5089019;28;20093;-60
2024/01/09 02:05:22;;;;;;;38.33;22.50;;;0.10;2201.60;;;;;;5072098;28;20021;-61
2024/01/09 02:07:50;;;;;;;47.75;28.27;;;0.40;2201.60;;;;;;5071682;28;20024;-61
2024/01/09 02:10:19;;;;;;;35.80;22.88;;;0.10;2201.60;;;;;;5073041;28;20051;-60
2024/01/09 02:12:45;;;;;;;39.88;21.52;;;0.00;2201.60;;;;;;5074921;28;20439;-60
2024/01/09 02:15:11;;;;;;;39.28;24.10;;;0.10;2201.60;;;;;;5072395;28;20024;-61
2024/01/09 02:17:38;;;;;;;37.80;22.25;;;0.10;2201.60;;;;;;5068196;28;20024;-61
2024/01/09 02:20:08;;;;;;;39.38;21.90;;;0.20;2201.60;;;;;;5088207;28;20550;-62
2024/01/09 02:22:34;;;;;;;42.25;24.23;;;0.10;2201.60;;;;;;5088785;28;20020;-61
2024/01/09 02:25:00;;;;;;;39.20;22.48;;;0.10;2201.60;;;;;;5083558;28;20013;-57
2024/01/09 02:27:44;;;;;;;47.00;24.50;;;0.10;2201.60;;;;;;5079786;28;20032;-61
2024/01/09 02:30:10;;;;;;;34.72;19.73;;;0.00;2201.60;;;;;;5063132;28;20073;-61
2024/01/09 02:32:37;;;;;;;33.42;19.60;;;0.10;2201.60;;;;;;5087785;28;20020;-60
2024/01/09 02:35:02;;;;;;;39.75;22.25;;;0.10;2201.60;;;;;;5088523;28;20032;-60
2024/01/09 02:37:28;;;;;;;43.22;25.15;;;0.00;2201.60;;;;;;5086424;28;20150;-61
2024/01/09 02:40:00;;;;;;;37.78;22.73;;;0.20;2201.60;;;;;;5071261;28;20086;-60
2024/01/09 02:42:29;;;;;;;37.20;21.75;;;0.30;2201.60;;;;;;5068872;28;20060;-60
2024/01/09 02:44:55;;;;;;;29.10;18.98;;;0.30;2201.60;;;;;;5062747;28;20024;-61
2024/01/09 02:47:25;;;;;;;36.03;20.48;;;0.40;2201.60;;;;;;5087578;28;20028;-62
2024/01/09 02:49:51;;;;;;;39.50;22.48;;;0.10;2201.60;;;;;;5088132;28;20386;-61
2024/01/09 02:52:17;;;;;;;34.97;19.05;;;0.10;2201.60;;;;;;5087015;28;20095;-61
2024/01/09 02:54:43;;;;;;;29.17;17.65;;;0.20;2201.60;;;;;;5088650;28;20028;-61
2024/01/09 02:57:10;;;;;;;33.97;20.60;;;0.20;2201.60;;;;;;5086496;28;20494;-62
2024/01/09 02:59:36;;;;;;;43.28;21.63;;;0.20;2201.60;;;;;;5087716;28;20482;-60
2024/01/09 03:02:02;;;;;;;40.53;24.05;;;0.10;2201.60;;;;;;5089701;28;20040;-60
2024/01/09 03:04:28;;;;;;;30.95;20.45;;;0.10;2201.60;;;;;;5079590;28;20348;-60
2024/01/09 03:06:53;;;;;;;31.88;18.90;;;0.00;2201.60;;;;;;5091248;28;20024;-60
2024/01/09 03:09:19;;;;;;;38.78;21.05;;;13.00;2201.60;;;;;;5091702;28;20040;-60
2024/01/09 03:11:45;;;;;;;34.53;22.15;;;13.00;2201.60;;;;;;5091137;28;20420;-61
2024/01/09 03:14:12;;;;;;;37.92;21.65;;;0.00;2201.60;;;;;;5091381;28;20024;-61
2024/01/09 03:16:38;;;;;;;36.10;20.50;;;12.90;2201.60;;;;;;5090540;28;20474;-61
2024/01/09 03:19:04;;;;;;;32.60;20.20;;;0.10;2201.60;;;;;;5090167;28;20047;-60
2024/01/09 03:21:29;;;;;;;31.42;18.17;;;12.90;2201.60;;;;;;5090071;28;20028;-60
2024/01/09 03:23:55;;;;;;;32.35;17.52;;;0.10;2201.60;;;;;;5089007;28;20032;-60
2024/01/09 03:26:21;;;;;;;31.75;19.80;;;0.00;2201.60;;;;;;5089029;28;20023;-62
2024/01/09 03:28:48;;;;;;;36.58;19.90;;;0.00;2201.60;;;;;;5087665;28;20084;-61
2024/01/09 03:31:23;;;;;;;37.50;21.90;;;0.10;2201.60;;;;;;5083410;28;20111;-61
2024/01/09 03:33:50;;;;;;;32.65;19.65;;;12.90;2201.60;;;;;;5071811;28;20035;-61
2024/01/09 03:36:17;;;;;;;33.58;19.13;;;0.00;2201.60;;;;;;5079807;28;20028;-61
2024/01/09 03:38:44;;;;;;;34.72;19.67;;;0.00;2201.60;;;;;;5090853;28;20478;-61
2024/01/09 03:41:11;;;;;;;33.90;19.77;;;0.00;2201.60;;;;;;5091066;28;20028;-60
2024/01/09 03:43:37;;;;;;;31.88;20.67;;;12.90;2201.60;;;;;;5088391;28;20036;-61
2024/01/09 03:46:03;;;;;;;30.25;18.88;;;12.90;2201.60;;;;;;5072088;28;20025;-61
2024/01/09 03:48:29;;;;;;;30.88;19.50;;;12.90;2201.60;;;;;;5071360;28;20040;-61
2024/01/09 03:50:54;;;;;;;38.53;21.88;;;0.00;2201.60;;;;;;5071737;28;20495;-61
2024/01/09 03:53:20;;;;;;;37.08;19.52;;;12.90;2201.60;;;;;;5071275;28;20609;-61
2024/01/09 03:55:46;;;;;;;29.42;18.42;;;12.90;2201.60;;;;;;5071594;28;20033;-62
2024/01/09 03:58:12;;;;;;;35.72;20.92;;;12.90;2201.60;;;;;;5071727;28;20364;-60
2024/01/09 04:00:38;;;;;;;40.05;22.45;;;12.90;2201.60;;;;;;5071343;28;20020;-61
2024/01/09 04:03:05;;;;;;;32.00;19.15;;;0.00;2201.60;;;;;;5071258;28;20132;-63
2024/01/09 04:05:31;;;;;;;30.58;18.90;;;0.00;2201.60;;;;;;5071339;28;20021;-61
2024/01/09 04:07:57;;;;;;;33.85;17.92;;;12.90;2201.60;;;;;;5070705;28;20035;-61
2024/01/09 04:10:22;;;;;;;34.40;20.38;;;0.20;2201.60;;;;;;5071498;28;20036;-62
2024/01/09 04:12:48;;;;;;;30.67;20.33;;;0.30;2201.60;;;;;;5071655;28;20021;-60
2024/01/09 04:15:14;;;;;;;35.30;19.20;;;0.20;2201.60;;;;;;5072652;28;20375;-61
2024/01/09 04:17:40;;;;;;;27.40;17.85;;;0.10;2201.60;;;;;;5086756;28;20036;-66
2024/01/09 04:20:08;;;;;;;29.88;18.80;;;0.10;2201.60;;;;;;5073195;28;20043;-60
2024/01/09 04:22:34;;;;;;;31.70;18.45;;;12.90;2201.60;;;;;;5058505;28;20041;-60
2024/01/09 04:24:59;;;;;;;30.65;20.70;;;13.00;2201.60;;;;;;5070527;28;20021;-60
2024/01/09 04:27:25;;;;;;;32.88;19.45;;;12.90;2201.60;;;;;;5070613;28;20032;-59
2024/01/09 04:29:51;;;;;;;33.60;19.30;;;12.90;2201.60;;;;;;5070930;28;20032;-59
2024/01/09 04:32:17;;;;;;;32.03;19.77;;;0.00;2201.60;;;;;;5070405;28;20021;-61
2024/01/09 04:34:43;;;;;;;30.95;18.50;;;0.10;2201.60;;;;;;5071035;28;20017;-60
2024/01/09 04:37:09;;;;;;;31.70;18.58;;;0.10;2201.60;;;;;;5070512;28;20463;-61
2024/01/09 04:39:35;;;;;;;32.60;19.45;;;0.10;2201.60;;;;;;5070711;28;20059;-61
2024/01/09 04:42:00;;;;;;;40.72;24.67;;;0.10;2201.60;;;;;;5070045;28;20028;-61
2024/01/09 04:44:26;;;;;;;28.65;19.00;;;0.10;2201.60;;;;;;5070644;28;20506;-62
2024/01/09 04:46:52;;;;;;;29.48;18.15;;;0.20;2201.60;;;;;;5070602;28;20036;-60
2024/01/09 04:49:17;;;;;;;30.00;18.40;;;0.00;2201.60;;;;;;5070429;28;20045;-61
2024/01/09 04:51:44;;;;;;;29.52;18.45;;;0.10;2201.60;;;;;;5070873;28;20077;-61
2024/01/09 04:54:10;;;;;;;53.95;29.85;;;12.90;2201.60;;;;;;5070807;28;20024;-60
2024/01/09 04:56:35;;;;;;;47.47;27.15;;;0.10;2201.60;;;;;;5070658;28;20401;-60
2024/01/09 04:59:01;;;;;;;34.22;18.65;;;0.10;2201.60;;;;;;5070643;28;20546;-60
2024/01/09 05:01:28;;;;;;;31.55;20.33;;;0.10;2201.60;;;;;;5069988;28;20052;-61
2024/01/09 05:03:54;;;;;;;36.63;20.45;;;0.10;2201.60;;;;;;5070686;28;20028;-61
2024/01/09 05:06:20;;;;;;;29.45;18.92;;;0.10;2201.60;;;;;;5070085;28;20417;-60
2024/01/09 05:08:46;;;;;;;31.58;19.65;;;0.10;2201.60;;;;;;5070105;28;20032;-60
2024/01/09 05:11:12;;;;;;;38.58;22.23;;;0.10;2201.60;;;;;;5070195;28;20025;-60
2024/01/09 05:13:38;;;;;;;40.53;27.13;;;0.10;2201.60;;;;;;5070126;28;20368;-60
2024/01/09 05:16:04;;;;;;;34.05;19.88;;;0.50;2201.60;;;;;;5070022;28;20028;-60
2024/01/09 05:18:31;;;;;;;31.65;18.60;;;0.00;2201.60;;;;;;5069878;28;20536;-60
2024/01/09 05:20:56;;;;;;;30.08;19.23;;;0.20;2201.60;;;;;;5069948;28;20868;-60
2024/01/09 05:23:22;;;;;;;33.20;20.60;;;0.00;2201.60;;;;;;5069321;28;20025;-63
2024/01/09 05:25:48;;;;;;;49.78;28.20;;;0.00;2201.60;;;;;;5069373;28;20425;-60
2024/01/09 05:28:15;;;;;;;35.72;21.10;;;0.10;2201.60;;;;;;5069982;28;20040;-62
2024/01/09 05:30:41;;;;;;;34.42;19.58;;;0.20;2201.60;;;;;;5069502;28;20501;-60
2024/01/09 05:33:07;;;;;;;36.50;21.17;;;0.10;2201.60;;;;;;5069838;28;20466;-61
2024/01/09 05:35:33;;;;;;;34.65;19.63;;;0.00;2201.60;;;;;;5069754;28;20032;-60
2024/01/09 05:37:59;;;;;;;37.70;22.85;;;0.00;2201.60;;;;;;5069732;28;20025;-60
2024/01/09 05:40:24;;;;;;;36.85;20.55;;;0.00;2201.60;;;;;;5070092;28;20493;-62
2024/01/09 05:42:50;;;;;;;34.03;20.92;;;12.90;2201.60;;;;;;5072910;28;20028;-60
2024/01/09 05:45:16;;;;;;;37.50;19.40;;;0.00;2201.60;;;;;;5069488;28;20060;-62
2024/01/09 05:47:43;;;;;;;32.33;19.50;;;0.00;2201.60;;;;;;5069656;28;20104;-59
2024/01/09 05:50:09;;;;;;;30.30;20.40;;;12.90;2201.60;;;;;;5069129;28;20143;-60
2024/01/09 05:52:36;;;;;;;31.30;19.20;;;0.10;2201.60;;;;;;5080072;28;20024;-60
2024/01/09 05:55:06;;;;;;;33.40;19.50;;;0.00;2201.60;;;;;;5068922;28;20116;-60
2024/01/09 05:57:32;;;;;;;31.67;18.98;;;12.90;2201.60;;;;;;5069481;28;20241;-60
2024/01/09 05:59:58;;;;;;;31.02;18.88;;;0.10;2201.60;;;;;;5055779;28;20158;-60
2024/01/09 06:02:25;;;;;;;35.15;21.63;;;0.00;2201.60;;;;;;5069429;28;20475;-62
2024/01/09 06:04:51;;;;;;;30.25;20.60;;;0.20;2201.60;;;;;;5069392;28;20024;-60
2024/01/09 06:07:17;;;;;;;31.05;17.95;;;0.40;2201.60;;;;;;5069112;28;20024;-61
2024/01/09 06:09:43;;;;;;;34.42;19.85;;;0.10;2201.60;;;;;;5071647;28;20041;-62
2024/01/09 06:12:09;;;;;;;35.35;21.02;;;0.30;2201.60;;;;;;5077643;28;20116;-60
2024/01/09 06:14:35;;;;;;;33.33;21.20;;;0.20;2201.60;;;;;;5073582;28;20445;-60
2024/01/09 06:17:01;;;;;;;35.15;19.40;;;0.10;2201.60;;;;;;5075238;28;20486;-60
2024/01/09 06:19:27;;;;;;;32.60;20.33;;;0.30;2201.60;;;;;;5074353;28;20040;-60
2024/01/09 06:21:53;;;;;;;33.20;19.42;;;0.30;2201.60;;;;;;5069422;28;20021;-60
2024/01/09 06:24:19;;;;;;;31.20;20.85;;;0.10;2201.60;;;;;;5068630;28;20028;-60
2024/01/09 06:26:45;;;;;;;37.65;22.20;;;0.00;2201.60;;;;;;5068934;28;20040;-61
2024/01/09 06:29:11;;;;;;;34.90;19.55;;;0.00;2201.60;;;;;;5068953;28;20032;-61
2024/01/09 06:31:37;;;;;;;40.15;22.95;;;12.90;2201.60;;;;;;5068894;28;20082;-60
2024/01/09 06:34:03;;;;;;;33.65;21.40;;;12.90;2201.60;;;;;;5069550;28;20404;-60
2024/01/09 06:36:29;;;;;;;35.17;22.90;;;0.00;2201.60;;;;;;5073292;28;20130;-60
2024/01/09 06:38:54;;;;;;;34.58;21.52;;;12.90;2201.60;;;;;;5072691;28;20021;-60
2024/01/09 06:41:20;;;;;;;38.90;21.60;;;12.90;2201.60;;;;;;5054634;28;20033;-59
2024/01/09 06:43:46;;;;;;;40.45;21.95;;;12.90;2201.60;;;;;;5072545;28;20033;-62
2024/01/09 06:46:11;;;;;;;46.08;25.30;;;12.90;2201.60;;;;;;5072906;28;20024;-62
2024/01/09 06:48:39;;;;;;;42.05;22.40;;;0.00;2201.60;;;;;;5073790;28;20128;-60
2024/01/09 06:51:05;;;;;;;212.00;111.22;;;0.00;2201.60;;;;;;5072740;28;20450;-60
2024/01/09 06:53:31;;;;;;;69.88;38.42;;;0.00;2201.60;;;;;;5072056;28;20029;-60
2024/01/09 06:55:56;;;;;;;50.15;30.15;;;0.20;2201.60;;;;;;5068775;28;20021;-60
2024/01/09 06:58:22;;;;;;;36.30;22.08;;;0.30;2201.60;;;;;;5077137;28;20028;-59
2024/01/09 07:00:48;;;;;;;88.20;60.10;;;0.20;2201.60;;;;;;5070549;28;20374;-60
2024/01/09 07:03:14;;;;;;;44.85;25.85;;;0.30;2201.60;;;;;;5078202;28;20025;-60
2024/01/09 07:05:40;;;;;;;49.60;32.80;;;0.40;2201.60;;;;;;5081601;28;20077;-62
2024/01/09 07:08:06;;;;;;;45.05;24.13;;;0.50;2201.60;;;;;;5070333;28;20464;-61
2024/01/09 07:10:32;;;;;;;74.22;47.50;;;0.50;2201.60;;;;;;5072214;28;20127;-60
2024/01/09 07:12:58;;;;;;;36.80;24.33;;;0.50;2201.60;;;;;;5072280;28;20029;-60
2024/01/09 07:15:24;;;;;;;60.50;35.50;;;0.60;2201.60;;;;;;5072667;28;20359;-60
2024/01/09 07:17:50;;;;;;;37.05;22.67;;;0.70;2201.60;;;;;;5071889;28;20037;-60
2024/01/09 07:20:15;;;;;;;35.30;21.05;;;0.70;2201.60;;;;;;5072559;28;20025;-60
2024/01/09 07:22:41;;;;;;;34.10;20.60;;;0.60;2201.60;;;;;;5072259;28;20051;-60
2024/01/09 07:25:07;;;;;;;34.97;21.73;;;0.80;2201.60;;;;;;5071740;28;20056;-61
2024/01/09 07:27:34;;;;;;;40.25;27.15;;;0.70;2201.60;;;;;;5071948;28;20028;-60
2024/01/09 07:30:00;;;;;;;86.78;55.10;;;0.70;2201.60;;;;;;5071836;28;20039;-60
2024/01/09 07:32:26;;;;;;;41.88;26.20;;;0.90;2201.60;;;;;;5072140;28;20028;-60
2024/01/09 07:34:52;;;;;;;35.70;22.63;;;25.60;2201.60;;;;;;5071916;28;20031;-60
2024/01/09 07:37:18;;;;;;;35.78;23.60;;;0.90;2201.60;;;;;;5071798;28;20029;-60
2024/01/09 07:39:43;;;;;;;41.75;30.08;;;25.60;2201.60;;;;;;5071864;28;20490;-60
2024/01/09 07:42:12;;;;;;;35.83;21.48;;;0.80;2201.60;;;;;;5071510;28;20793;-59
2024/01/09 07:44:37;;;;;;;37.45;24.60;;;0.80;2201.60;;;;;;5071914;28;20021;-61
2024/01/09 07:47:03;;;;;;;32.50;20.75;;;25.70;2201.60;;;;;;5071079;28;20925;-60
2024/01/09 07:49:29;;;;;;;35.65;22.08;;;25.70;2201.60;;;;;;5071212;28;20048;-61
2024/01/09 07:51:55;;;;;;;37.47;22.38;;;25.70;2201.60;;;;;;5071592;28;20467;-60
2024/01/09 07:54:20;;;;;;;41.85;22.67;;;0.90;2201.60;;;;;;5071461;28;20029;-60
2024/01/09 07:56:47;;;;;;;32.97;20.75;;;25.70;2201.60;;;;;;5071284;28;20020;-60
2024/01/09 07:59:13;;;;;;;46.15;27.60;;;25.90;2201.60;;;;;;5082289;28;20028;-60
2024/01/09 08:01:38;;;;;;;34.17;22.20;;;25.80;2201.60;;;;;;5073491;28;20364;-60
2024/01/09 08:04:06;;;;;;;38.17;21.45;;;25.90;2201.60;;;;;;5071464;28;20035;-60
2024/01/09 08:06:32;;;;;;;32.75;21.02;;;26.00;2201.60;;;;;;5067093;28;20048;-59
2024/01/09 08:08:58;;;;;;;43.15;24.98;;;25.90;2201.60;;;;;;5077374;28;20102;-59
2024/01/09 08:11:23;;;;;;;35.45;22.52;;;26.10;2201.60;;;;;;5071235;28;20427;-60
2024/01/09 08:13:49;;;;;;;36.38;20.67;;;26.00;2201.60;;;;;;5070734;28;20021;-60
2024/01/09 08:16:15;;;;;;;38.55;20.33;;;26.20;2201.60;;;;;;5070922;28;20025;-60
2024/01/09 08:18:41;;;;;;;36.60;21.50;;;26.20;2201.60;;;;;;5070985;28;20024;-61
2024/01/09 08:21:06;;;;;;;41.63;25.45;;;26.30;2201.60;;;;;;5071016;28;20040;-60
2024/01/09 08:23:32;;;;;;;36.22;21.02;;;26.40;2201.60;;;;;;5071021;28;20058;-60
2024/01/09 08:25:58;;;;;;;33.50;21.25;;;26.30;2201.60;;;;;;5070268;28;20100;-63
2024/01/09 08:28:24;;;;;;;30.17;20.20;;;26.30;2201.60;;;;;;5070598;28;20123;-59
2024/01/09 08:30:50;;;;;;;100.63;62.58;;;26.40;2201.60;;;;;;5079379;28;20047;-60
2024/01/09 08:33:16;;;;;;;40.13;22.58;;;26.40;2201.60;;;;;;5070903;28;20443;-60
2024/01/09 08:35:43;;;;;;;33.30;19.33;;;26.50;2201.60;;;;;;5077914;28;20115;-60
2024/01/09 08:38:10;;;;;;;32.97;22.73;;;51.20;2227.20;;;;;;5085838;28;20036;-62
2024/01/09 08:40:36;;;;;;;37.55;20.95;;;26.50;2201.60;;;;;;5080429;28;20040;-60
2024/01/09 08:43:01;;;;;;;32.53;20.40;;;51.30;2227.20;;;;;;5087302;28;20351;-60
2024/01/09 08:45:27;;;;;;;42.53;22.88;;;26.30;2201.60;;;;;;5090385;28;20023;-61
2024/01/09 08:47:53;;;;;;;35.90;21.38;;;26.20;2201.60;;;;;;5089350;28;20094;-60
2024/01/09 08:50:19;;;;;;;130.13;90.97;;;26.20;2201.60;;;;;;5089718;28;20040;-62
2024/01/09 08:52:45;;;;;;;30.80;20.48;;;26.40;2201.60;;;;;;5081001;28;20028;-60
2024/01/09 08:55:10;;;;;;;85.65;64.32;;;51.20;2227.20;;;;;;5071558;28;20032;-60
2024/01/09 08:57:36;;;;;;;34.45;22.33;;;26.40;2201.60;;;;;;5069350;28;20029;-61
2024/01/09 09:00:02;;;;;;;36.22;21.17;;;51.30;2227.20;;;;;;5070288;28;20024;-60
2024/01/09 09:02:28;;;;;;;33.80;20.45;;;51.50;2227.20;;;;;;5070383;28;20025;-60
2024/01/09 09:04:54;;;;;;;36.50;21.52;;;51.50;2227.20;;;;;;5070535;28;20025;-61
2024/01/09 09:07:20;;;;;;;31.30;20.00;;;51.50;2227.20;;;;;;5070245;28;20051;-60
2024/01/09 09:09:46;;;;;;;34.83;22.67;;;51.60;2227.20;;;;;;5070168;28;20044;-59
2024/01/09 09:12:12;;;;;;;76.45;39.97;;;51.70;2227.20;;;;;;5069698;28;20020;-61
2024/01/09 09:14:38;;;;;;;90.30;51.85;;;52.00;2227.20;;;;;;5070208;28;20032;-60
2024/01/09 09:17:04;;;;;;;50.55;28.33;;;52.00;2227.20;;;;;;5070394;28;20020;-64
2024/01/09 09:19:31;;;;;;;36.30;23.48;;;52.00;2227.20;;;;;;5061836;28;20036;-70
2024/01/09 09:22:03;;;;;;;34.83;21.30;;;52.00;2227.20;;;;;;5073977;28;20536;-64
2024/01/09 09:24:29;;;;;;;35.08;21.73;;;51.80;2227.20;;;;;;5070340;28;20035;-63
2024/01/09 09:26:55;;;;;;;33.70;21.13;;;52.10;2227.20;;;;;;5069935;28;20017;-65
2024/01/09 09:29:20;;;;;;;35.85;24.35;;;52.10;2227.20;;;;;;5069875;28;20163;-68
2024/01/09 09:31:55;;;;;;;34.45;20.02;;;52.10;2227.20;;;;;;5069934;28;20050;-64
2024/01/09 09:34:21;;;;;;;41.50;25.63;;;52.10;2227.20;;;;;;5069798;28;20028;-69
2024/01/09 09:36:47;;;;;;;42.30;26.55;;;52.10;2227.20;;;;;;5082483;28;20028;-67
2024/01/09 09:39:13;;;;;;;44.00;25.25;;;52.10;2227.20;;;;;;5065758;28;20041;-69
2024/01/09 09:41:46;;;;;;;37.63;21.67;;;76.80;2227.20;;;;;;5064250;28;20036;-68
2024/01/09 09:44:14;;;;;;;37.17;23.10;;;76.80;2227.20;;;;;;5056617;28;20710;-68
2024/01/09 09:46:41;;;;;;;40.75;23.90;;;51.70;2227.20;;;;;;5070213;28;20509;-66
2024/01/09 09:49:09;;;;;;;44.55;25.30;;;51.90;2227.20;;;;;;5067797;28;20024;-67
2024/01/09 09:51:35;;;;;;;46.20;25.65;;;52.00;2227.20;;;;;;5069206;28;20051;-67
2024/01/09 09:54:02;;;;;;;42.67;26.55;;;76.80;2227.20;;;;;;5063842;28;20020;-63
2024/01/09 09:56:28;;;;;;;39.50;23.42;;;52.10;2227.20;;;;;;5068656;28;20036;-69
2024/01/09 09:58:54;;;;;;;44.30;26.95;;;52.10;2227.20;;;;;;5068980;28;20024;-67
2024/01/09 10:01:22;;;;;;;39.83;23.50;;;76.90;2227.20;;;;;;5068951;28;20418;-67
2024/01/09 10:04:08;;;;;;;34.95;20.45;;;76.90;2227.20;;;;;;5061423;28;20478;-64
2024/01/09 10:06:38;;;;;;;37.83;21.40;;;52.10;2227.20;;;;;;5082341;28;20498;-64
2024/01/09 10:09:06;;;;;;;38.70;23.40;;;52.00;2227.20;;;;;;5068737;28;20029;-68
2024/01/09 10:11:32;;;;;;;49.40;25.65;;;51.70;2227.20;;;;;;5068773;28;20074;-62
2024/01/09 10:13:59;;;;;;;45.25;24.50;;;51.80;2227.20;;;;;;5068706;28;20017;-64
2024/01/09 10:16:25;;;;;;;47.20;28.13;;;51.90;2227.20;;;;;;5064644;28;20020;-68
2024/01/09 10:18:54;;;;;;;51.38;31.38;;;51.90;2227.20;;;;;;5068963;28;20031;-67
2024/01/09 10:21:22;;;;;;;51.08;29.65;;;51.90;2227.20;;;;;;5068374;28;20052;-69
2024/01/09 10:23:49;;;;;;;46.72;27.88;;;52.10;2227.20;;;;;;5068417;28;20013;-67
2024/01/09 10:26:14;;;;;;;68.28;39.40;;;76.80;2227.20;;;;;;5068849;28;20028;-63
2024/01/09 10:28:41;;;;;;;48.88;29.77;;;52.10;2227.20;;;;;;5062519;28;20031;-65
2024/01/09 10:31:07;;;;;;;58.63;33.38;;;52.10;2227.20;;;;;;5039717;28;20835;-62
2024/01/09 10:33:37;;;;;;;56.17;33.17;;;52.00;2227.20;;;;;;5052426;28;20052;-69
2024/01/09 10:36:03;;;;;;;54.30;31.17;;;52.00;2227.20;;;;;;5088228;28;20028;-63
2024/01/09 10:38:29;;;;;;;50.33;31.48;;;51.80;2227.20;;;;;;5073949;28;20470;-70
2024/01/09 10:40:57;;;;;;;52.25;30.38;;;51.80;2227.20;;;;;;5087122;28;20055;-71
2024/01/09 10:43:26;;;;;;;59.15;33.05;;;51.70;2227.20;;;;;;5084733;28;20450;-72
2024/01/09 10:45:53;;;;;;;59.60;34.65;;;51.70;2227.20;;;;;;5086898;28;20467;-63
2024/01/09 10:48:23;;;;;;;221.40;123.80;;;51.70;2227.20;;;;;;5079855;28;20554;-63
2024/01/09 10:50:51;;;;;;;134.48;76.63;;;51.30;2227.20;;;;;;5080256;28;20450;-66
2024/01/09 10:53:20;;;;;;;103.32;60.55;;;51.40;2227.20;;;;;;5063192;28;20504;-64
2024/01/09 10:55:49;;;;;;;68.20;39.75;;;51.40;2227.20;;;;;;5073330;28;20372;-68
2024/01/09 10:58:15;;;;;;;65.78;39.30;;;51.20;2227.20;;;;;;5068830;28;20020;-69
2024/01/09 11:00:41;;;;;;;76.50;38.00;;;51.30;2227.20;;;;;;5068711;28;20042;-69
2024/01/09 11:03:07;;;;;;;60.47;34.45;;;26.20;2201.60;;;;;;5068995;28;20024;-64
2024/01/09 11:05:34;;;;;;;58.58;33.92;;;51.40;2227.20;;;;;;5068834;28;20528;-63
2024/01/09 11:08:04;;;;;;;61.72;36.35;;;51.30;2227.20;;;;;;5068845;28;20044;-69
2024/01/09 11:10:32;;;;;;;68.50;40.58;;;26.50;2201.60;;;;;;5068510;28;20063;-69
2024/01/09 11:12:59;;;;;;;76.93;46.60;;;51.50;2227.20;;;;;;5068427;28;20058;-64
2024/01/09 11:15:36;;;;;;;66.82;40.78;;;26.50;2201.60;;;;;;5068854;28;20060;-63
2024/01/09 11:18:09;;;;;;;78.85;43.22;;;51.20;2227.20;;;;;;5068711;28;20041;-67
2024/01/09 11:20:35;;;;;;;72.32;39.83;;;26.50;2201.60;;;;;;5068770;28;20103;-69
2024/01/09 11:23:01;;;;;;;74.78;42.90;;;26.30;2201.60;;;;;;5071887;28;20100;-64
2024/01/09 11:25:31;;;;;;;94.63;55.92;;;26.50;2201.60;;;;;;5071700;28;20040;-65
2024/01/09 11:27:58;;;;;;;87.28;51.13;;;51.40;2227.20;;;;;;5071556;28;20047;-64
2024/01/09 11:30:30;;;;;;;110.07;58.47;;;26.40;2201.60;;;;;;5072211;28;20494;-69
2024/01/09 11:33:34;;;;;;;98.60;60.22;;;26.10;2201.60;;;;;;5059341;28;20025;-68
2024/01/09 11:36:06;;;;;;;104.80;54.53;;;26.20;2201.60;;;;;;5071709;28;20021;-69
2024/01/09 11:38:33;;;;;;;102.75;60.50;;;25.60;2201.60;;;;;;5072325;28;20033;-66
2024/01/09 11:41:06;;;;;;;65.22;36.30;;;25.90;2201.60;;;;;;5071494;28;20506;-70
2024/01/09 11:43:58;;;;;;;73.38;41.05;;;25.60;2201.60;;;;;;5071362;28;20466;-69
2024/01/09 11:46:24;;;;;;;91.28;48.97;;;25.70;2201.60;;;;;;5071917;28;20028;-68
2024/01/09 11:48:50;;;;;;;64.95;39.92;;;26.00;2201.60;;;;;;5071187;28;20382;-68
2024/01/09 11:51:17;;;;;;;77.80;45.10;;;26.40;2201.60;;;;;;5071786;28;20032;-65
2024/01/09 11:53:43;;;;;;;64.25;37.03;;;26.30;2201.60;;;;;;5071678;28;20085;-69
2024/01/09 11:56:12;;;;;;;58.38;33.53;;;26.30;2201.60;;;;;;5071329;28;20107;-69
2024/01/09 11:58:38;;;;;;;58.65;33.40;;;26.30;2201.60;;;;;;5071541;28;20376;-70
2024/01/09 12:01:05;;;;;;;77.55;49.33;;;26.40;2201.60;;;;;;5071545;28;20036;-68
2024/01/09 12:03:33;;;;;;;57.60;35.25;;;26.30;2201.60;;;;;;5071246;28;20024;-69
2024/01/09 12:05:59;;;;;;;73.82;40.55;;;26.40;2201.60;;;;;;5071531;28;20021;-70
2024/01/09 12:08:25;;;;;;;132.57;76.47;;;26.30;2201.60;;;;;;5071356;28;20020;-69
2024/01/09 12:10:51;;;;;;;57.75;36.70;;;26.30;2201.60;;;;;;5071023;28;20039;-67